Time;durP1;ratioP1;P1;durP2;ratioP2;P2;SDS_P1;SDS_P2;PMS_P1;PMS_P2;Temp;Humidity;BMP_temperature;BMP_pressure;BME280_temperature;BME280_humidity;BME280_pressure;Samples;Min_cycle;Max_cycle;Signal;HPM_P1;HPM_P2
2023/01/02 00:00:03;;;;;;;8.05;6.15;;;;;;;;;;2097075;28;20449;-47
2023/01/02 00:01:04;;;;;;;9.63;6.55;;;;;;;;;;2097502;28;20045;-46
2023/01/02 00:02:06;;;;;;;10.70;6.78;;;;;;;;;;2097266;28;20048;-43
2023/01/02 00:03:07;;;;;;;9.75;6.32;;;;;;;;;;2097132;28;20511;-46
2023/01/02 00:04:08;;;;;;;8.43;6.70;;;;;;;;;;2097182;28;20127;-43
2023/01/02 00:05:10;;;;;;;8.73;6.28;;;;;;;;;;2097086;28;20113;-45
2023/01/02 00:06:11;;;;;;;9.10;6.13;;;;;;;;;;2097241;28;20044;-44
2023/01/02 00:07:12;;;;;;;7.93;6.22;;;;;;;;;;2097240;28;20469;-45
2023/01/02 00:08:13;;;;;;;9.43;6.32;;;;;;;;;;2096610;28;20047;-44
2023/01/02 00:09:14;;;;;;;8.30;6.53;;;;;;;;;;2088798;28;20122;-43
2023/01/02 00:10:15;;;;;;;10.13;6.40;;;;;;;;;;2088856;28;20505;-45
2023/01/02 00:11:16;;;;;;;8.83;6.40;;;;;;;;;;2089040;28;20080;-45
2023/01/02 00:12:17;;;;;;;9.20;6.80;;;;;;;;;;2088833;28;20410;-45
2023/01/02 00:13:18;;;;;;;9.60;6.65;;;;;;;;;;2089121;28;20073;-43
2023/01/02 00:14:19;;;;;;;8.52;6.72;;;;;;;;;;2088788;28;20052;-45
2023/01/02 00:15:20;;;;;;;9.38;6.45;;;;;;;;;;2088877;28;20076;-47
2023/01/02 00:16:21;;;;;;;10.25;6.43;;;;;;;;;;2088896;28;20051;-44
2023/01/02 00:17:23;;;;;;;9.17;6.20;;;;;;;;;;2091325;28;20056;-45
2023/01/02 00:18:24;;;;;;;9.25;6.68;;;;;;;;;;2097068;28;20063;-44
2023/01/02 00:19:25;;;;;;;10.95;6.35;;;;;;;;;;2097047;28;20071;-46
2023/01/02 00:20:26;;;;;;;9.27;7.20;;;;;;;;;;2097130;28;20052;-44
2023/01/02 00:21:27;;;;;;;9.77;6.57;;;;;;;;;;2097220;28;20052;-45
2023/01/02 00:22:28;;;;;;;8.47;6.37;;;;;;;;;;2097116;28;20482;-47
2023/01/02 00:23:29;;;;;;;9.65;6.82;;;;;;;;;;2097066;28;20422;-45
2023/01/02 00:24:30;;;;;;;10.57;7.00;;;;;;;;;;2097127;28;20045;-47
2023/01/02 00:25:33;;;;;;;10.77;6.50;;;;;;;;;;2088789;28;20044;-45
2023/01/02 00:26:34;;;;;;;11.00;7.55;;;;;;;;;;2088891;28;20055;-46
2023/01/02 00:27:35;;;;;;;9.55;6.22;;;;;;;;;;2088958;28;20052;-47
2023/01/02 00:28:37;;;;;;;9.83;6.00;;;;;;;;;;2088688;28;20590;-47
2023/01/02 00:29:38;;;;;;;9.13;6.68;;;;;;;;;;2088673;28;20075;-46
2023/01/02 00:30:39;;;;;;;7.70;6.50;;;;;;;;;;2088747;28;20486;-46
2023/01/02 00:31:40;;;;;;;9.90;6.70;;;;;;;;;;2088725;28;20651;-46
2023/01/02 00:32:43;;;;;;;10.00;6.72;;;;;;;;;;2088874;28;20106;-45
2023/01/02 00:33:44;;;;;;;7.55;5.65;;;;;;;;;;2089222;28;20060;-45
2023/01/02 00:34:45;;;;;;;9.07;5.93;;;;;;;;;;2088720;28;20103;-45
2023/01/02 00:35:46;;;;;;;9.65;6.10;;;;;;;;;;2088866;28;20550;-44
2023/01/02 00:36:47;;;;;;;8.13;6.10;;;;;;;;;;2088633;28;20044;-45
2023/01/02 00:37:48;;;;;;;8.70;5.93;;;;;;;;;;2088883;28;20146;-46
2023/01/02 00:38:49;;;;;;;9.00;6.22;;;;;;;;;;2088617;28;20045;-46
2023/01/02 00:39:50;;;;;;;8.23;6.70;;;;;;;;;;2090204;28;20212;-45
2023/01/02 00:40:51;;;;;;;7.65;5.90;;;;;;;;;;2090075;28;20106;-45
2023/01/02 00:41:52;;;;;;;9.00;6.57;;;;;;;;;;2090214;28;20080;-44
2023/01/02 00:42:53;;;;;;;8.30;6.45;;;;;;;;;;2090134;28;20045;-44
2023/01/02 00:43:54;;;;;;;10.87;6.87;;;;;;;;;;2090010;28;20709;-45
2023/01/02 00:44:55;;;;;;;10.43;6.75;;;;;;;;;;2090090;28;20052;-44
2023/01/02 00:45:56;;;;;;;10.70;6.53;;;;;;;;;;2090202;28;20037;-46
2023/01/02 00:46:57;;;;;;;10.30;6.63;;;;;;;;;;2090209;28;20041;-45
2023/01/02 00:47:59;;;;;;;9.00;6.50;;;;;;;;;;2090072;28;20041;-45
2023/01/02 00:49:00;;;;;;;11.77;6.10;;;;;;;;;;2090038;28;20409;-45
2023/01/02 00:50:01;;;;;;;7.95;5.88;;;;;;;;;;2090042;28;20049;-44
2023/01/02 00:51:02;;;;;;;9.05;5.88;;;;;;;;;;2090248;28;20378;-45
2023/01/02 00:52:03;;;;;;;7.70;5.83;;;;;;;;;;2092639;28;20066;-45
2023/01/02 00:53:04;;;;;;;8.82;6.43;;;;;;;;;;2095174;28;20515;-47
2023/01/02 00:54:05;;;;;;;10.30;6.43;;;;;;;;;;2094714;28;20040;-45
2023/01/02 00:55:07;;;;;;;10.55;6.85;;;;;;;;;;2094000;28;20060;-46
2023/01/02 00:56:08;;;;;;;8.77;6.63;;;;;;;;;;2090073;28;20048;-45
2023/01/02 00:57:09;;;;;;;10.77;6.43;;;;;;;;;;2090229;28;20048;-45
2023/01/02 00:58:10;;;;;;;8.23;5.97;;;;;;;;;;2090167;28;20466;-46
2023/01/02 00:59:11;;;;;;;7.78;6.35;;;;;;;;;;2089900;28;20049;-46
2023/01/02 01:00:12;;;;;;;8.77;6.70;;;;;;;;;;2090001;28;20049;-45
2023/01/02 01:01:20;;;;;;;8.43;5.75;;;;;;;;;;2090022;28;20053;-46
2023/01/02 01:02:21;;;;;;;8.77;6.45;;;;;;;;;;2090103;28;20049;-45
2023/01/02 01:03:23;;;;;;;9.57;6.28;;;;;;;;;;2090002;28;20482;-45
2023/01/02 01:04:24;;;;;;;8.77;6.20;;;;;;;;;;2089937;28;20060;-45
2023/01/02 01:05:25;;;;;;;11.20;7.07;;;;;;;;;;2090007;28;20056;-46
2023/01/02 01:06:26;;;;;;;12.30;6.78;;;;;;;;;;2089955;28;20410;-44
2023/01/02 01:07:27;;;;;;;8.93;6.65;;;;;;;;;;2090022;28;20049;-44
2023/01/02 01:08:29;;;;;;;10.07;6.60;;;;;;;;;;2089895;28;20573;-45
2023/01/02 01:09:29;;;;;;;9.43;6.30;;;;;;;;;;2089823;28;20490;-44
2023/01/02 01:10:31;;;;;;;8.40;6.47;;;;;;;;;;2089912;28;20049;-45
2023/01/02 01:11:32;;;;;;;10.50;6.28;;;;;;;;;;2089943;28;20060;-44
2023/01/02 01:12:33;;;;;;;11.30;6.10;;;;;;;;;;2089878;28;20132;-44
2023/01/02 01:13:34;;;;;;;8.25;6.45;;;;;;;;;;2091859;28;20519;-44
2023/01/02 01:14:35;;;;;;;7.82;6.18;;;;;;;;;;2098000;28;20405;-44
2023/01/02 01:15:36;;;;;;;8.98;6.13;;;;;;;;;;2098171;28;20052;-44
2023/01/02 01:16:37;;;;;;;7.60;5.93;;;;;;;;;;2098159;28;20051;-44
2023/01/02 01:17:38;;;;;;;7.25;6.03;;;;;;;;;;2098201;28;20049;-44
2023/01/02 01:18:40;;;;;;;9.60;6.30;;;;;;;;;;2098253;28;20048;-45
2023/01/02 01:19:41;;;;;;;9.30;6.68;;;;;;;;;;2098178;28;20045;-44
2023/01/02 01:20:42;;;;;;;8.13;6.43;;;;;;;;;;2098219;28;20091;-44
2023/01/02 01:21:44;;;;;;;10.60;6.55;;;;;;;;;;2098088;28;20056;-44
2023/01/02 01:22:45;;;;;;;8.05;6.60;;;;;;;;;;2098097;28;20504;-44
2023/01/02 01:23:48;;;;;;;7.43;5.93;;;;;;;;;;2098302;28;20055;-45
2023/01/02 01:24:49;;;;;;;8.38;5.80;;;;;;;;;;2097884;28;20048;-44
2023/01/02 01:25:50;;;;;;;8.27;6.55;;;;;;;;;;2098188;28;20048;-45
2023/01/02 01:26:51;;;;;;;8.00;6.70;;;;;;;;;;2098137;28;20067;-46
2023/01/02 01:27:53;;;;;;;9.25;6.38;;;;;;;;;;2098089;28;20358;-45
2023/01/02 01:28:54;;;;;;;8.35;6.22;;;;;;;;;;2098203;28;20052;-43
2023/01/02 01:29:55;;;;;;;8.57;6.95;;;;;;;;;;2098025;28;20052;-44
2023/01/02 01:31:00;;;;;;;10.67;6.60;;;;;;;;;;2098031;28;20135;-45
2023/01/02 01:32:01;;;;;;;10.60;6.78;;;;;;;;;;2098373;28;20052;-45
2023/01/02 01:33:02;;;;;;;8.80;6.75;;;;;;;;;;2097938;28;20054;-44
2023/01/02 01:34:04;;;;;;;10.55;6.40;;;;;;;;;;2098304;28;20041;-45
2023/01/02 01:35:05;;;;;;;10.38;6.43;;;;;;;;;;2098112;28;20033;-46
2023/01/02 01:36:08;;;;;;;9.48;6.60;;;;;;;;;;2098118;28;20048;-46
2023/01/02 01:37:10;;;;;;;11.15;6.53;;;;;;;;;;2098048;28;20093;-46
2023/01/02 01:38:11;;;;;;;;;;;;;;;;;;2098584;28;20487;-46
2023/01/02 01:39:12;;;;;;;9.82;6.32;;;;;;;;;;2097853;28;20202;-46
2023/01/02 01:40:13;;;;;;;7.70;5.90;;;;;;;;;;2098262;28;20048;-45
2023/01/02 01:41:15;;;;;;;8.48;6.55;;;;;;;;;;2098046;28;20535;-45
2023/01/02 01:42:17;;;;;;;8.63;6.88;;;;;;;;;;2097870;28;20386;-45
2023/01/02 01:43:17;;;;;;;;;;;;;;;;;;2098552;28;20048;-46
2023/01/02 01:44:37;;;;;;;8.57;6.07;;;;;;;;;;2097903;28;19920;-45
2023/01/02 01:45:40;;;;;;;7.82;6.35;;;;;;;;;;2097949;28;20106;-46
2023/01/02 01:46:42;;;;;;;8.40;6.25;;;;;;;;;;2098051;28;20041;-44
2023/01/02 01:47:45;;;;;;;8.85;7.18;;;;;;;;;;2098006;28;20482;-44
2023/01/02 01:48:47;;;;;;;9.77;7.00;;;;;;;;;;2097811;28;20045;-46
2023/01/02 01:49:50;;;;;;;8.43;6.78;;;;;;;;;;2097964;28;20135;-45
2023/01/02 01:50:52;;;;;;;9.07;6.40;;;;;;;;;;2097879;28;20048;-44
2023/01/02 01:51:54;;;;;;;9.40;6.70;;;;;;;;;;2097953;28;20053;-45
2023/01/02 01:53:00;;;;;;;8.15;6.22;;;;;;;;;;2097926;28;20082;-44
2023/01/02 01:54:04;;;;;;;10.60;7.15;;;;;;;;;;2098080;28;20052;-44
2023/01/02 01:55:08;;;;;;;9.43;6.85;;;;;;;;;;2098093;28;20051;-44
2023/01/02 01:56:10;;;;;;;9.07;6.75;;;;;;;;;;2097982;28;20044;-43
2023/01/02 01:57:14;;;;;;;8.95;6.30;;;;;;;;;;2098054;28;20098;-44
2023/01/02 01:58:16;;;;;;;10.13;7.03;;;;;;;;;;2097891;28;20539;-44
2023/01/02 01:59:17;;;;;;;9.38;7.28;;;;;;;;;;2097775;28;20471;-45
2023/01/02 02:00:19;;;;;;;9.20;6.47;;;;;;;;;;2097977;28;20051;-44
2023/01/02 02:01:20;;;;;;;9.88;6.65;;;;;;;;;;2098241;28;20052;-46
2023/01/02 02:02:21;;;;;;;10.52;7.15;;;;;;;;;;2097799;28;20048;-46
2023/01/02 02:03:24;;;;;;;9.95;6.43;;;;;;;;;;2097949;28;20048;-45
2023/01/02 02:04:25;;;;;;;9.30;6.90;;;;;;;;;;2097765;28;20057;-46
2023/01/02 02:05:28;;;;;;;8.98;6.13;;;;;;;;;;2097883;28;20075;-46
2023/01/02 02:06:29;;;;;;;8.63;6.93;;;;;;;;;;2097669;28;20420;-45
2023/01/02 02:07:31;;;;;;;11.80;6.38;;;;;;;;;;2098070;28;20048;-44
2023/01/02 02:08:35;;;;;;;12.73;7.13;;;;;;;;;;2097868;28;20049;-45
2023/01/02 02:09:37;;;;;;;10.07;7.13;;;;;;;;;;2097567;28;20044;-45
2023/01/02 02:10:39;;;;;;;12.25;7.07;;;;;;;;;;2097917;28;20063;-44
2023/01/02 02:11:40;;;;;;;8.63;6.57;;;;;;;;;;2097932;28;20040;-45
2023/01/02 02:12:42;;;;;;;9.73;7.17;;;;;;;;;;2097652;28;20052;-45
2023/01/02 02:13:42;;;;;;;8.95;6.72;;;;;;;;;;2097938;28;20051;-47
2023/01/02 02:14:44;;;;;;;8.68;6.70;;;;;;;;;;2097728;28;20053;-44
2023/01/02 02:15:51;;;;;;;12.38;6.75;;;;;;;;;;2097696;28;20497;-45
2023/01/02 02:16:55;;;;;;;10.43;6.45;;;;;;;;;;2097742;28;20056;-44
2023/01/02 02:18:02;;;;;;;8.60;6.80;;;;;;;;;;2097473;28;20394;-44
2023/01/02 02:19:15;;;;;;;9.27;7.03;;;;;;;;;;2097713;28;20511;-44
2023/01/02 02:20:30;;;;;;;9.27;6.63;;;;;;;;;;2097705;28;20503;-44
2023/01/02 02:21:41;;;;;;;10.93;6.43;;;;;;;;;;2097888;28;20049;-44
2023/01/02 02:22:55;;;;;;;9.55;6.97;;;;;;;;;;2097680;28;20414;-45
2023/01/02 02:24:11;;;;;;;9.13;6.68;;;;;;;;;;2097972;28;20044;-46
2023/01/02 02:25:30;;;;;;;9.52;7.47;;;;;;;;;;2089598;28;20049;-45
2023/01/02 02:26:46;;;;;;;10.48;6.95;;;;;;;;;;2089327;28;20052;-44
2023/01/02 02:27:56;;;;;;;9.02;6.47;;;;;;;;;;2089451;28;20494;-44
2023/01/02 02:29:12;;;;;;;10.60;7.20;;;;;;;;;;2089484;28;20048;-44
2023/01/02 02:30:14;;;;;;;9.85;7.00;;;;;;;;;;2087629;28;20052;-44
2023/01/02 02:31:19;;;;;;;11.57;7.80;;;;;;;;;;2089391;28;20597;-44
2023/01/02 02:32:24;;;;;;;10.00;7.40;;;;;;;;;;2089370;28;20413;-46
2023/01/02 02:33:31;;;;;;;12.20;7.28;;;;;;;;;;2089413;28;20049;-43
2023/01/02 02:34:37;;;;;;;11.05;7.20;;;;;;;;;;2089367;28;20049;-43
2023/01/02 02:35:48;;;;;;;10.45;7.45;;;;;;;;;;2089413;28;20516;-45
2023/01/02 02:36:54;;;;;;;11.90;7.70;;;;;;;;;;2089479;28;20045;-46
2023/01/02 02:37:57;;;;;;;13.85;7.60;;;;;;;;;;2089496;28;20052;-45
2023/01/02 02:39:05;;;;;;;11.93;8.90;;;;;;;;;;2089494;28;20045;-46
2023/01/02 02:40:14;;;;;;;12.88;9.55;;;;;;;;;;2089295;28;20045;-45
2023/01/02 02:41:19;;;;;;;10.65;8.45;;;;;;;;;;2089498;28;20127;-45
2023/01/02 02:42:22;;;;;;;12.70;8.70;;;;;;;;;;2089559;28;20567;-46
2023/01/02 02:43:27;;;;;;;13.00;8.57;;;;;;;;;;2089264;28;20486;-45
2023/01/02 02:44:31;;;;;;;11.55;8.52;;;;;;;;;;2089294;28;20516;-44
2023/01/02 02:45:37;;;;;;;11.38;8.00;;;;;;;;;;2089516;28;20075;-45
2023/01/02 02:46:43;;;;;;;11.52;7.47;;;;;;;;;;2089394;28;20049;-43
2023/01/02 02:47:48;;;;;;;11.02;7.32;;;;;;;;;;2089490;28;20053;-44
2023/01/02 02:48:55;;;;;;;8.30;6.55;;;;;;;;;;2089335;28;20131;-46
2023/01/02 02:49:58;;;;;;;12.00;7.70;;;;;;;;;;2089497;28;20106;-45
2023/01/02 02:51:02;;;;;;;8.27;7.03;;;;;;;;;;2089364;28;20045;-44
2023/01/02 02:52:06;;;;;;;10.18;7.55;;;;;;;;;;2089222;28;20406;-46
2023/01/02 02:53:10;;;;;;;10.48;7.68;;;;;;;;;;2089294;28;20049;-45
2023/01/02 02:54:13;;;;;;;8.68;7.03;;;;;;;;;;2089270;28;20056;-45
2023/01/02 02:55:15;;;;;;;11.20;7.50;;;;;;;;;;2089405;28;20053;-45
2023/01/02 02:56:17;;;;;;;9.63;7.30;;;;;;;;;;2089194;28;20147;-45
2023/01/02 02:57:19;;;;;;;11.80;7.80;;;;;;;;;;2089339;28;20052;-44
2023/01/02 02:58:22;;;;;;;13.32;7.68;;;;;;;;;;2089476;28;20095;-46
2023/01/02 02:59:23;;;;;;;14.10;7.93;;;;;;;;;;2089454;28;20049;-44
2023/01/02 03:00:24;;;;;;;10.80;7.67;;;;;;;;;;2089267;28;20049;-46
2023/01/02 03:01:26;;;;;;;9.13;7.43;;;;;;;;;;2089272;28;20057;-47
2023/01/02 03:02:31;;;;;;;9.63;7.45;;;;;;;;;;2089000;28;20132;-46
2023/01/02 03:03:33;;;;;;;9.80;7.45;;;;;;;;;;2089339;28;20094;-47
2023/01/02 03:04:34;;;;;;;11.27;7.95;;;;;;;;;;2089059;28;20049;-46
2023/01/02 03:05:38;;;;;;;13.27;7.80;;;;;;;;;;2089362;28;20094;-47
2023/01/02 03:06:44;;;;;;;12.85;8.05;;;;;;;;;;2095943;28;20052;-46
2023/01/02 03:07:48;;;;;;;13.23;7.05;;;;;;;;;;2097416;28;20283;-46
2023/01/02 03:08:54;;;;;;;8.38;6.68;;;;;;;;;;2097610;28;20135;-48
2023/01/02 03:10:01;;;;;;;12.40;7.50;;;;;;;;;;2097373;28;20064;-46
2023/01/02 03:11:02;;;;;;;10.68;7.82;;;;;;;;;;2097759;28;20049;-47
2023/01/02 03:12:07;;;;;;;11.80;8.43;;;;;;;;;;2097419;28;20040;-47
2023/01/02 03:13:12;;;;;;;11.95;8.70;;;;;;;;;;2097609;28;20052;-46
2023/01/02 03:14:19;;;;;;;11.38;8.07;;;;;;;;;;2097091;28;20569;-47
2023/01/02 03:15:26;;;;;;;9.82;7.57;;;;;;;;;;2097617;28;20101;-46
2023/01/02 03:16:29;;;;;;;10.88;8.27;;;;;;;;;;2097326;28;20044;-44
2023/01/02 03:17:32;;;;;;;10.38;8.10;;;;;;;;;;2097565;28;20048;-47
2023/01/02 03:18:34;;;;;;;13.88;8.60;;;;;;;;;;2097565;28;20049;-46
2023/01/02 03:19:37;;;;;;;12.30;8.63;;;;;;;;;;2097370;28;20128;-46
2023/01/02 03:20:39;;;;;;;9.90;8.13;;;;;;;;;;2097307;28;20074;-46
2023/01/02 03:21:42;;;;;;;15.52;8.43;;;;;;;;;;2097766;28;20049;-46
2023/01/02 03:22:45;;;;;;;13.13;8.50;;;;;;;;;;2097342;28;20097;-44
2023/01/02 03:23:47;;;;;;;14.52;8.55;;;;;;;;;;2097429;28;20044;-44
2023/01/02 03:24:50;;;;;;;11.63;8.48;;;;;;;;;;2094720;28;20048;-47
2023/01/02 03:25:51;;;;;;;11.15;7.85;;;;;;;;;;2089141;28;20045;-46
2023/01/02 03:26:54;;;;;;;10.73;7.75;;;;;;;;;;2089173;28;20053;-47
2023/01/02 03:27:56;;;;;;;11.75;8.48;;;;;;;;;;2089118;28;20048;-46
2023/01/02 03:28:59;;;;;;;13.88;9.00;;;;;;;;;;2089210;28;20095;-46
2023/01/02 03:30:01;;;;;;;12.13;8.65;;;;;;;;;;2089198;28;20049;-46
2023/01/02 03:31:04;;;;;;;14.20;9.07;;;;;;;;;;2089440;28;20048;-45
2023/01/02 03:32:08;;;;;;;12.55;8.90;;;;;;;;;;2089183;28;20124;-45
2023/01/02 03:33:11;;;;;;;13.15;8.93;;;;;;;;;;2089408;28;20072;-45
2023/01/02 03:34:14;;;;;;;12.20;8.50;;;;;;;;;;2089194;28;20120;-45
2023/01/02 03:35:17;;;;;;;13.02;8.70;;;;;;;;;;2089197;28;20052;-45
2023/01/02 03:36:20;;;;;;;11.35;8.45;;;;;;;;;;2089036;28;20053;-45
2023/01/02 03:37:22;;;;;;;12.73;8.73;;;;;;;;;;2089155;28;20052;-45
2023/01/02 03:38:24;;;;;;;13.32;8.82;;;;;;;;;;2089066;28;20045;-44
2023/01/02 03:39:27;;;;;;;11.13;8.82;;;;;;;;;;2089183;28;20091;-45
2023/01/02 03:40:31;;;;;;;11.55;8.25;;;;;;;;;;2089107;28;20045;-45
2023/01/02 03:41:34;;;;;;;13.48;8.77;;;;;;;;;;2088971;28;20207;-45
2023/01/02 03:42:39;;;;;;;13.77;9.10;;;;;;;;;;2088905;28;20056;-45
2023/01/02 03:43:40;;;;;;;12.30;8.57;;;;;;;;;;2089143;28;20044;-47
2023/01/02 03:44:44;;;;;;;11.32;8.18;;;;;;;;;;2089116;28;20486;-45
2023/01/02 03:45:47;;;;;;;10.45;8.18;;;;;;;;;;2089140;28;20513;-45
2023/01/02 03:46:50;;;;;;;10.90;8.27;;;;;;;;;;2088909;28;20644;-45
2023/01/02 03:47:55;;;;;;;12.73;8.60;;;;;;;;;;2088920;28;20482;-45
2023/01/02 03:48:59;;;;;;;11.90;8.90;;;;;;;;;;2088948;28;20041;-45
2023/01/02 03:50:03;;;;;;;9.98;7.55;;;;;;;;;;2088840;28;20053;-45
2023/01/02 03:51:04;;;;;;;9.73;7.63;;;;;;;;;;2088935;28;20481;-46
2023/01/02 03:52:05;;;;;;;11.48;8.30;;;;;;;;;;2088993;28;20124;-46
2023/01/02 03:53:06;;;;;;;10.85;7.50;;;;;;;;;;2089103;28;20045;-43
2023/01/02 03:54:08;;;;;;;12.57;8.10;;;;;;;;;;2088991;28;20041;-42
2023/01/02 03:55:10;;;;;;;12.45;7.88;;;;;;;;;;2088973;28;20045;-43
2023/01/02 03:56:16;;;;;;;11.10;8.10;;;;;;;;;;2089078;28;20049;-43
2023/01/02 03:57:21;;;;;;;11.32;7.68;;;;;;;;;;2088982;28;20398;-43
2023/01/02 03:58:26;;;;;;;12.52;7.75;;;;;;;;;;2089076;28;20068;-45
2023/01/02 03:59:32;;;;;;;10.30;8.45;;;;;;;;;;2089095;28;20045;-46
2023/01/02 04:00:36;;;;;;;10.93;8.18;;;;;;;;;;2089131;28;20094;-43
2023/01/02 04:01:38;;;;;;;11.85;8.02;;;;;;;;;;2088923;28;20048;-44
2023/01/02 04:02:43;;;;;;;11.68;7.85;;;;;;;;;;2093613;28;20097;-44
2023/01/02 04:03:47;;;;;;;13.77;8.65;;;;;;;;;;2097159;28;20123;-44
2023/01/02 04:04:50;;;;;;;11.55;7.85;;;;;;;;;;2097109;28;20579;-44
2023/01/02 04:05:57;;;;;;;10.50;7.57;;;;;;;;;;2097210;28;20052;-44
2023/01/02 04:07:00;;;;;;;10.60;8.18;;;;;;;;;;2097288;28;20036;-44
2023/01/02 04:08:03;;;;;;;12.60;8.55;;;;;;;;;;2097252;28;20047;-44
2023/01/02 04:09:06;;;;;;;11.32;8.30;;;;;;;;;;2097292;28;20040;-44
2023/01/02 04:10:09;;;;;;;11.35;8.43;;;;;;;;;;2096873;28;20131;-44
2023/01/02 04:11:14;;;;;;;11.63;8.88;;;;;;;;;;2097165;28;20048;-44
2023/01/02 04:12:16;;;;;;;12.55;9.20;;;;;;;;;;2097189;28;20063;-45
2023/01/02 04:13:19;;;;;;;13.35;9.23;;;;;;;;;;2097425;28;20048;-46
2023/01/02 04:14:25;;;;;;;13.07;8.88;;;;;;;;;;2097667;28;20102;-46
2023/01/02 04:15:26;;;;;;;15.65;9.95;;;;;;;;;;2098758;28;20045;-47
2023/01/02 04:16:30;;;;;;;12.15;8.82;;;;;;;;;;2098511;28;20409;-47
2023/01/02 04:17:33;;;;;;;12.77;9.27;;;;;;;;;;2098627;28;20051;-45
2023/01/02 04:18:37;;;;;;;15.85;9.85;;;;;;;;;;2098656;28;20191;-45
2023/01/02 04:19:48;;;;;;;13.15;9.43;;;;;;;;;;2098805;28;20045;-44
2023/01/02 04:20:53;;;;;;;13.75;9.05;;;;;;;;;;2098398;28;20049;-45
2023/01/02 04:21:55;;;;;;;14.25;9.82;;;;;;;;;;2098720;28;20045;-47
2023/01/02 04:22:58;;;;;;;14.27;9.95;;;;;;;;;;2098619;28;20147;-48
2023/01/02 04:24:02;;;;;;;13.85;10.57;;;;;;;;;;2098670;28;20040;-44
2023/01/02 04:25:07;;;;;;;13.27;10.00;;;;;;;;;;2093812;28;20056;-45
2023/01/02 04:26:11;;;;;;;14.38;11.30;;;;;;;;;;2090342;28;20045;-44
2023/01/02 04:27:13;;;;;;;16.45;10.85;;;;;;;;;;2090270;28;20041;-45
2023/01/02 04:28:17;;;;;;;16.05;10.27;;;;;;;;;;2090157;28;20414;-44
2023/01/02 04:29:18;;;;;;;13.45;10.07;;;;;;;;;;2090249;28;20064;-44
2023/01/02 04:30:19;;;;;;;15.03;10.23;;;;;;;;;;2090408;28;20049;-45
2023/01/02 04:31:21;;;;;;;13.65;10.40;;;;;;;;;;2090214;28;20378;-46
2023/01/02 04:32:24;;;;;;;14.70;10.73;;;;;;;;;;2090117;28;20052;-45
2023/01/02 04:33:28;;;;;;;13.82;10.23;;;;;;;;;;2090340;28;20052;-46
2023/01/02 04:34:31;;;;;;;17.77;10.85;;;;;;;;;;2090053;28;20571;-45
2023/01/02 04:35:34;;;;;;;14.90;10.75;;;;;;;;;;2090250;28;20106;-45
2023/01/02 04:36:36;;;;;;;15.45;10.75;;;;;;;;;;2090197;28;20053;-45
2023/01/02 04:37:39;;;;;;;11.63;9.05;;;;;;;;;;2090305;28;20481;-45
2023/01/02 04:38:41;;;;;;;14.50;10.57;;;;;;;;;;2090257;28;20049;-46
2023/01/02 04:39:42;;;;;;;16.15;10.13;;;;;;;;;;2090084;28;20052;-45
2023/01/02 04:40:43;;;;;;;21.63;11.02;;;;;;;;;;2090126;28;20512;-46
2023/01/02 04:41:44;;;;;;;12.98;9.45;;;;;;;;;;2090241;28;20059;-46
2023/01/02 04:42:45;;;;;;;15.13;9.90;;;;;;;;;;2090251;28;20460;-47
2023/01/02 04:43:46;;;;;;;12.82;9.77;;;;;;;;;;2090168;28;20056;-47
2023/01/02 04:44:47;;;;;;;13.60;9.82;;;;;;;;;;2090045;28;20056;-46
2023/01/02 04:45:49;;;;;;;14.55;9.27;;;;;;;;;;2090077;28;20045;-46
2023/01/02 04:46:49;;;;;;;14.48;10.88;;;;;;;;;;2090125;28;20486;-46
2023/01/02 04:47:51;;;;;;;16.05;10.45;;;;;;;;;;2090429;28;20053;-47
2023/01/02 04:48:53;;;;;;;17.05;10.25;;;;;;;;;;2090035;28;20397;-45
2023/01/02 04:49:53;;;;;;;;;;;;;;;;;;2090585;28;20095;-46
2023/01/02 04:50:55;;;;;;;14.68;9.98;;;;;;;;;;2089915;28;19924;-45
2023/01/02 04:51:56;;;;;;;16.75;9.73;;;;;;;;;;2090084;28;20045;-46
2023/01/02 04:52:57;;;;;;;15.85;10.35;;;;;;;;;;2090013;28;20421;-47
2023/01/02 04:53:58;;;;;;;14.37;10.47;;;;;;;;;;2090007;28;20092;-45
2023/01/02 04:54:59;;;;;;;17.73;11.32;;;;;;;;;;2090034;28;20048;-46
2023/01/02 04:56:00;;;;;;;16.33;10.15;;;;;;;;;;2090382;28;20578;-45
2023/01/02 04:57:01;;;;;;;17.15;11.23;;;;;;;;;;2090070;28;20220;-46
2023/01/02 04:58:02;;;;;;;16.98;11.02;;;;;;;;;;2090201;28;20080;-46
2023/01/02 04:59:03;;;;;;;16.33;10.65;;;;;;;;;;2096128;28;20044;-46
2023/01/02 05:00:05;;;;;;;20.20;11.65;;;;;;;;;;2098132;28;20041;-46
2023/01/02 05:01:06;;;;;;;;;;;;;;;;;;2098833;28;20057;-46
2023/01/02 05:02:07;;;;;;;17.77;12.63;;;;;;;;;;2098294;28;19972;-47
2023/01/02 05:03:08;;;;;;;18.77;12.98;;;;;;;;;;2098387;28;20131;-46
2023/01/02 05:04:09;;;;;;;19.45;11.57;;;;;;;;;;2098431;28;20075;-46
2023/01/02 05:05:10;;;;;;;19.08;12.90;;;;;;;;;;2098410;28;20106;-47
2023/01/02 05:06:12;;;;;;;17.10;12.07;;;;;;;;;;2098011;28;20520;-46
2023/01/02 05:07:13;;;;;;;19.00;12.40;;;;;;;;;;2098236;28;20478;-46
2023/01/02 05:08:14;;;;;;;19.47;11.90;;;;;;;;;;2098313;28;20053;-46
2023/01/02 05:09:17;;;;;;;18.88;12.38;;;;;;;;;;2098138;28;20481;-46
2023/01/02 05:10:18;;;;;;;19.43;12.10;;;;;;;;;;2098291;28;20190;-46
2023/01/02 05:11:19;;;;;;;19.10;12.73;;;;;;;;;;2098235;28;20041;-45
2023/01/02 05:12:20;;;;;;;18.87;13.10;;;;;;;;;;2098592;28;20076;-43
2023/01/02 05:13:21;;;;;;;18.85;12.55;;;;;;;;;;2098218;28;20758;-43
2023/01/02 05:14:22;;;;;;;20.73;11.82;;;;;;;;;;2098326;28;20052;-43
2023/01/02 05:15:23;;;;;;;17.63;12.43;;;;;;;;;;2098265;28;20055;-44
2023/01/02 05:16:24;;;;;;;17.15;12.52;;;;;;;;;;2098343;28;20484;-43
2023/01/02 05:17:25;;;;;;;18.90;12.82;;;;;;;;;;2098261;28;20055;-44
2023/01/02 05:18:27;;;;;;;20.73;12.30;;;;;;;;;;2098153;28;20044;-43
2023/01/02 05:19:28;;;;;;;15.95;11.88;;;;;;;;;;2098323;28;20049;-43
2023/01/02 05:20:29;;;;;;;16.63;11.77;;;;;;;;;;2098165;28;20063;-44
2023/01/02 05:24:09;;;;;;;16.02;10.85;;;;;;;;;;2098057;28;20051;-44
2023/01/02 05:25:10;;;;;;;13.63;9.27;;;;;;;;;;2092055;28;20047;-43
2023/01/02 05:26:11;;;;;;;17.15;11.20;;;;;;;;;;2089851;28;20398;-43
2023/01/02 05:27:12;;;;;;;14.88;9.50;;;;;;;;;;2089860;28;20069;-43
2023/01/02 05:28:13;;;;;;;14.50;10.00;;;;;;;;;;2089873;28;20126;-43
2023/01/02 05:29:14;;;;;;;15.35;10.82;;;;;;;;;;2089719;28;20154;-42
2023/01/02 05:30:15;;;;;;;16.52;11.32;;;;;;;;;;2090090;28;20059;-43
2023/01/02 05:31:16;;;;;;;19.33;12.00;;;;;;;;;;2089750;28;20053;-43
2023/01/02 05:32:17;;;;;;;19.88;12.40;;;;;;;;;;2089809;28;20492;-44
2023/01/02 05:33:18;;;;;;;16.43;11.73;;;;;;;;;;2089924;28;20114;-44
2023/01/02 05:34:19;;;;;;;18.45;13.10;;;;;;;;;;2089779;28;20106;-45
2023/01/02 05:35:21;;;;;;;17.33;13.10;;;;;;;;;;2089967;28;20122;-44
2023/01/02 05:36:26;;;;;;;18.73;13.45;;;;;;;;;;2089737;28;20072;-44
2023/01/02 05:37:29;;;;;;;18.85;14.10;;;;;;;;;;2089997;28;20045;-44
2023/01/02 05:38:30;;;;;;;18.42;13.18;;;;;;;;;;2089980;28;20051;-43
2023/01/02 05:39:31;;;;;;;17.53;12.13;;;;;;;;;;2089839;28;20072;-43
2023/01/02 05:40:32;;;;;;;20.50;14.50;;;;;;;;;;2089742;28;20102;-44
2023/01/02 05:41:33;;;;;;;16.48;12.50;;;;;;;;;;2089822;28;20052;-44
2023/01/02 05:42:34;;;;;;;17.63;13.65;;;;;;;;;;2089744;28;20095;-43
2023/01/02 05:43:36;;;;;;;20.67;11.70;;;;;;;;;;2089918;28;20102;-43
2023/01/02 05:44:37;;;;;;;18.42;12.93;;;;;;;;;;2089608;28;20309;-44
2023/01/02 05:45:38;;;;;;;18.33;12.93;;;;;;;;;;2089988;28;20056;-43
2023/01/02 05:46:39;;;;;;;19.05;13.75;;;;;;;;;;2089759;28;20099;-43
2023/01/02 05:47:40;;;;;;;19.55;13.43;;;;;;;;;;2089887;28;20044;-44
2023/01/02 05:48:42;;;;;;;19.27;11.93;;;;;;;;;;2089604;28;20199;-42
2023/01/02 05:49:43;;;;;;;22.30;13.60;;;;;;;;;;2089846;28;20056;-43
2023/01/02 05:50:44;;;;;;;18.95;14.02;;;;;;;;;;2089625;28;20126;-43
2023/01/02 05:51:45;;;;;;;16.87;12.40;;;;;;;;;;2089653;28;20053;-43
2023/01/02 05:52:46;;;;;;;18.20;13.40;;;;;;;;;;2089717;28;20195;-44
2023/01/02 05:53:47;;;;;;;18.08;13.35;;;;;;;;;;2089716;28;20049;-43
2023/01/02 05:54:48;;;;;;;17.25;12.30;;;;;;;;;;2091418;28;20075;-45
2023/01/02 05:55:50;;;;;;;16.47;12.63;;;;;;;;;;2098037;28;20045;-43
2023/01/02 05:56:50;;;;;;;17.38;13.18;;;;;;;;;;2098011;28;20055;-44
2023/01/02 05:57:53;;;;;;;17.90;13.33;;;;;;;;;;2097852;28;20048;-44
2023/01/02 05:58:54;;;;;;;18.02;13.82;;;;;;;;;;2098113;28;20045;-45
2023/01/02 05:59:56;;;;;;;21.42;14.35;;;;;;;;;;2097859;28;20413;-45
2023/01/02 06:01:01;;;;;;;19.80;12.95;;;;;;;;;;2097986;28;20044;-43
2023/01/02 06:02:02;;;;;;;21.33;13.38;;;;;;;;;;2098105;28;20091;-43
2023/01/02 06:03:03;;;;;;;16.63;12.90;;;;;;;;;;2097913;28;20048;-43
2023/01/02 06:04:05;;;;;;;18.97;13.37;;;;;;;;;;2097932;28;20215;-43
2023/01/02 06:05:06;;;;;;;20.38;13.20;;;;;;;;;;2097703;28;20278;-44
2023/01/02 06:06:08;;;;;;;18.98;12.52;;;;;;;;;;2097985;28;20041;-43
2023/01/02 06:07:08;;;;;;;17.40;13.10;;;;;;;;;;2097789;28;20406;-43
2023/01/02 06:08:10;;;;;;;16.80;11.73;;;;;;;;;;2098047;28;20048;-46
2023/01/02 06:09:12;;;;;;;18.65;12.57;;;;;;;;;;2097742;28;20056;-45
2023/01/02 06:10:14;;;;;;;16.83;12.27;;;;;;;;;;2097673;28;20044;-46
2023/01/02 06:11:14;;;;;;;17.42;13.48;;;;;;;;;;2097878;28;20402;-46
2023/01/02 06:12:16;;;;;;;18.13;13.10;;;;;;;;;;2097968;28;20048;-45